EmailTwitter


Observations de surface / Québec / LFKB

Régions: Québec | Canada | États-Unis | Europe | France | UK | Elsewhere
Station
Affichage
Infos & localisation pour LFKB | Aide pour décoder les METARs

Observations prises le 2017-02-24 à 10H00 UTC à BASTIA/PORETTA, FR (LFKB)

Etat du ciel: partiellement nuageux.

Température: 15.0 Celsius

Point de rosée: 12.0 Celsius

Humidité relative: 82%

Vents: Variable à 4 km/h ou 2 noeuds.

Pression au niveau moyen de la mer: 100.90 kilopascals.

Visibilité horizontale: 6.21 milles terrestres ou 9.94 kilomètres.

Hauteur du plafond: 3353 mètres ( 11000 pieds ).

Observation METAR:

LFKB 241000Z VRB02KT 9999 FEW023 SCT090 BKN110 15/12 Q1009 NOSIG=